createdAt,value
2019-03-26T00:04:26.639Z,5.87
2019-03-26T00:09:32.321Z,6.30
2019-03-26T00:14:36.606Z,6.13
2019-03-26T00:19:45.826Z,6.80
2019-03-26T00:24:55.235Z,7.30
2019-03-26T00:29:59.801Z,6.67
2019-03-26T00:35:04.220Z,7.53
2019-03-26T00:40:08.991Z,8.17
2019-03-26T00:45:13.413Z,8.20
2019-03-26T00:50:17.609Z,8.27
2019-03-26T00:55:23.221Z,8.93
2019-03-26T01:00:44.947Z,8.57
2019-03-26T01:05:49.257Z,8.03
2019-03-26T01:10:53.739Z,9.30
2019-03-26T01:15:57.930Z,8.23
2019-03-26T01:21:02.163Z,8.43
2019-03-26T01:26:06.396Z,8.07
2019-03-26T01:31:10.582Z,7.93
2019-03-26T01:36:14.814Z,7.00
2019-03-26T01:41:19.275Z,7.40
2019-03-26T01:46:23.488Z,6.93
2019-03-26T01:51:46.731Z,6.27
2019-03-26T01:56:51.109Z,6.40
2019-03-26T02:01:55.763Z,6.70
2019-03-26T02:07:00.240Z,6.97
2019-03-26T02:12:04.539Z,6.40
2019-03-26T02:17:08.882Z,6.80
2019-03-26T02:22:13.187Z,6.20
2019-03-26T02:27:17.457Z,7.13
2019-03-26T02:32:21.805Z,6.90
2019-03-26T02:37:26.096Z,7.30
2019-03-26T02:42:30.402Z,7.37
2019-03-26T02:47:34.660Z,8.50
2019-03-26T02:52:38.976Z,7.67
2019-03-26T02:57:43.239Z,7.90
2019-03-26T03:02:47.641Z,7.97
2019-03-26T03:07:51.879Z,8.57
2019-03-26T03:12:56.230Z,8.03
2019-03-26T03:18:00.749Z,8.63
2019-03-26T03:23:05.121Z,9.20
2019-03-26T03:28:09.403Z,9.30
2019-03-26T03:33:13.958Z,9.33
2019-03-26T03:38:18.279Z,8.97
2019-03-26T03:43:22.514Z,8.50
2019-03-26T03:48:26.893Z,8.10
2019-03-26T03:53:31.843Z,8.90
2019-03-26T03:58:39.434Z,9.20
2019-03-26T04:03:43.699Z,8.63
2019-03-26T04:08:48.037Z,8.67
2019-03-26T04:13:52.562Z,8.93
2019-03-26T04:18:56.806Z,8.87
2019-03-26T04:24:01.131Z,9.07
2019-03-26T04:29:05.437Z,9.03
2019-03-26T04:34:09.690Z,9.10
2019-03-26T04:39:13.942Z,8.93
2019-03-26T04:44:18.491Z,9.73
2019-03-26T04:49:22.827Z,9.57
2019-03-26T04:54:27.398Z,8.67
2019-03-26T04:59:31.692Z,9.50
2019-03-26T05:04:36.007Z,9.53
2019-03-26T05:09:40.253Z,8.53
2019-03-26T05:14:44.523Z,9.23
2019-03-26T05:19:49.030Z,9.30
2019-03-26T05:24:53.261Z,9.17
2019-03-26T05:29:57.548Z,9.97
2019-03-26T05:35:02.019Z,9.00
2019-03-26T05:40:08.833Z,9.13
2019-03-26T05:45:15.929Z,9.27
2019-03-26T05:50:20.165Z,8.90
2019-03-26T05:55:24.753Z,8.97
2019-03-26T06:00:29.052Z,9.37
2019-03-26T06:05:33.317Z,8.37
2019-03-26T06:10:37.549Z,9.07
2019-03-26T06:15:41.836Z,8.30
2019-03-26T06:20:46.428Z,8.53
2019-03-26T06:25:50.810Z,8.00
2019-03-26T06:30:55.429Z,8.57
2019-03-26T06:35:59.981Z,8.67
2019-03-26T06:41:04.665Z,8.80
2019-03-26T06:46:08.961Z,9.30
2019-03-26T06:51:14.338Z,8.93
2019-03-26T06:56:18.577Z,9.50
2019-03-26T07:01:22.912Z,9.50
2019-03-26T07:06:27.252Z,10.57
2019-03-26T07:11:31.487Z,9.03
2019-03-26T07:16:35.691Z,9.83
2019-03-26T07:21:49.081Z,9.33
2019-03-26T07:26:45.892Z,9.50
2019-03-26T07:31:50.229Z,9.67
2019-03-26T07:36:54.482Z,12.33
2019-03-26T07:41:58.929Z,12.03
2019-03-26T07:47:03.260Z,12.87
2019-03-26T07:52:07.714Z,13.27
2019-03-26T07:57:11.903Z,12.83
2019-03-26T08:02:16.296Z,12.63
2019-03-26T08:07:20.530Z,12.43
2019-03-26T08:12:24.748Z,12.40
2019-03-26T08:17:28.947Z,13.70
2019-03-26T08:22:33.529Z,13.43
2019-03-26T08:27:37.787Z,13.60
2019-03-26T08:32:42.279Z,13.23
2019-03-26T08:37:46.487Z,14.07
2019-03-26T08:42:50.693Z,14.60
2019-03-26T08:47:54.889Z,14.00
2019-03-26T08:52:59.114Z,14.23
2019-03-26T08:58:03.632Z,15.53
2019-03-26T09:03:07.934Z,14.60
2019-03-26T09:08:24.459Z,13.83
2019-03-26T09:13:18.076Z,11.93
2019-03-26T09:18:22.853Z,12.20
2019-03-26T09:23:27.079Z,11.90
2019-03-26T09:28:31.288Z,10.87
2019-03-26T09:33:35.789Z,9.43
2019-03-26T09:38:40.091Z,9.00
2019-03-26T09:43:44.302Z,7.23
2019-03-26T09:48:49.150Z,6.70
2019-03-26T09:53:53.350Z,7.83
2019-03-26T09:58:57.539Z,6.70
2019-03-26T10:04:02.091Z,6.47
2019-03-26T10:09:07.770Z,7.03
2019-03-26T10:14:12.344Z,6.73
2019-03-26T10:19:17.143Z,6.23
2019-03-26T10:24:22.009Z,4.83
2019-03-26T10:29:30.388Z,5.83
2019-03-26T10:34:32.433Z,4.53
2019-03-26T10:39:37.110Z,4.60
2019-03-26T10:44:41.336Z,4.13
2019-03-26T10:49:45.970Z,4.20
2019-03-26T10:54:50.152Z,3.70
2019-03-26T10:59:54.358Z,4.30
2019-03-26T11:04:58.566Z,4.80
2019-03-26T11:10:02.881Z,4.37
2019-03-26T11:15:07.865Z,2.90
2019-03-26T11:20:12.871Z,3.60
2019-03-26T11:25:17.649Z,2.20
2019-03-26T11:30:21.862Z,2.23
2019-03-26T11:35:26.101Z,2.87
2019-03-26T11:40:30.537Z,2.57
2019-03-26T11:45:53.766Z,2.60
2019-03-26T11:50:58.585Z,2.10
2019-03-26T11:56:03.629Z,1.90
2019-03-26T12:01:08.023Z,2.00
2019-03-26T12:06:12.250Z,1.83
2019-03-26T12:11:16.490Z,2.20
2019-03-26T12:16:20.685Z,2.50
2019-03-26T12:21:24.901Z,2.77
2019-03-26T12:26:29.187Z,3.83
2019-03-26T12:31:33.690Z,4.80
2019-03-26T12:36:40.068Z,5.23
2019-03-26T12:41:43.925Z,5.47
2019-03-26T12:46:48.459Z,4.27
2019-03-26T12:51:52.677Z,4.00
2019-03-26T12:56:56.880Z,3.63
2019-03-26T13:02:01.081Z,3.03
2019-03-26T13:07:05.294Z,3.13
2019-03-26T13:12:09.573Z,3.30
2019-03-26T13:17:14.079Z,3.17
2019-03-26T13:22:18.282Z,2.63
2019-03-26T13:27:22.559Z,2.63
2019-03-26T13:32:26.782Z,2.40
2019-03-26T13:37:31.000Z,2.97
2019-03-26T13:42:35.265Z,3.00
2019-03-26T13:47:39.502Z,2.73
2019-03-26T13:52:43.698Z,2.40
2019-03-26T13:57:47.929Z,2.10
2019-03-26T14:02:52.224Z,2.53
2019-03-26T14:07:56.653Z,2.50
2019-03-26T14:13:00.865Z,2.53
2019-03-26T14:18:05.643Z,2.20
2019-03-26T14:23:10.175Z,2.37
2019-03-26T14:28:14.514Z,1.90
2019-03-26T14:33:18.717Z,2.17
2019-03-26T14:38:23.700Z,2.40
2019-03-26T14:43:29.319Z,2.20
2019-03-26T14:48:33.514Z,2.20
2019-03-26T14:53:37.913Z,2.30
2019-03-26T14:58:42.229Z,1.87
2019-03-26T15:03:46.802Z,2.43
2019-03-26T15:08:51.131Z,2.67
2019-03-26T15:13:55.483Z,2.07
2019-03-26T15:19:00.018Z,3.13
2019-03-26T15:24:04.243Z,2.60
2019-03-26T15:29:08.929Z,2.17
2019-03-26T15:34:13.250Z,2.50
2019-03-26T15:39:17.438Z,1.80
2019-03-26T15:44:21.624Z,2.40
2019-03-26T15:49:25.832Z,2.27
2019-03-26T15:54:30.033Z,2.13
2019-03-26T15:59:34.231Z,2.10
2019-03-26T16:04:38.562Z,2.90
2019-03-26T16:09:42.810Z,2.30
2019-03-26T16:14:47.000Z,2.10
2019-03-26T16:19:51.231Z,2.60
2019-03-26T16:24:55.685Z,2.43
2019-03-26T16:29:59.899Z,2.43
2019-03-26T16:35:04.600Z,2.50
2019-03-26T16:40:08.955Z,2.93
2019-03-26T16:45:13.330Z,2.80
2019-03-26T16:50:17.690Z,1.87
2019-03-26T16:55:21.902Z,2.10
2019-03-26T17:00:33.255Z,2.40
2019-03-26T17:05:37.466Z,2.17
2019-03-26T17:10:41.673Z,2.20
2019-03-26T17:15:45.898Z,3.00
2019-03-26T17:20:50.184Z,2.37
2019-03-26T17:25:54.702Z,2.43
2019-03-26T17:30:58.902Z,3.60
2019-03-26T17:36:03.107Z,3.47
2019-03-26T17:41:07.628Z,3.93
2019-03-26T17:46:14.931Z,3.73
2019-03-26T17:51:19.558Z,3.53
2019-03-26T17:56:24.220Z,4.20
2019-03-26T18:01:28.937Z,4.17
2019-03-26T18:06:33.189Z,4.57
2019-03-26T18:11:37.394Z,4.30
2019-03-26T18:16:41.870Z,3.93
2019-03-26T18:21:51.691Z,4.37
2019-03-26T18:26:52.344Z,3.80
2019-03-26T18:31:56.744Z,4.50
2019-03-26T18:37:07.438Z,4.20
2019-03-26T18:42:11.661Z,4.67
2019-03-26T18:47:15.868Z,5.23
2019-03-26T18:52:21.449Z,6.00
2019-03-26T18:57:26.500Z,4.90
2019-03-26T19:02:30.722Z,4.80
2019-03-26T19:07:34.958Z,5.43
2019-03-26T19:12:39.178Z,4.53
2019-03-26T19:17:43.430Z,4.90
2019-03-26T19:22:47.638Z,4.70
2019-03-26T19:27:51.883Z,4.83
2019-03-26T19:32:57.603Z,5.30
2019-03-26T19:38:02.439Z,5.80
2019-03-26T19:43:11.351Z,6.90
2019-03-26T19:48:13.097Z,6.70
2019-03-26T19:53:17.621Z,5.93
2019-03-26T19:58:21.953Z,6.43
2019-03-26T20:03:26.213Z,6.60
2019-03-26T20:08:30.441Z,6.17
2019-03-26T20:13:34.850Z,6.43
2019-03-26T20:18:39.223Z,7.40
2019-03-26T20:23:43.525Z,6.10
2019-03-26T20:28:47.790Z,6.23
2019-03-26T20:33:52.334Z,6.47
2019-03-26T20:38:56.670Z,6.57
2019-03-26T20:44:00.974Z,7.10
2019-03-26T20:49:05.341Z,6.93
2019-03-26T20:54:09.865Z,7.00
2019-03-26T20:59:14.406Z,7.37
2019-03-26T21:04:18.668Z,7.83
2019-03-26T21:09:22.926Z,6.47
2019-03-26T21:14:27.439Z,6.73
2019-03-26T21:19:31.729Z,6.63
2019-03-26T21:24:36.061Z,6.70
2019-03-26T21:29:40.318Z,6.60
2019-03-26T21:34:44.660Z,6.87
2019-03-26T21:39:48.889Z,5.93
2019-03-26T21:44:53.143Z,6.37
2019-03-26T21:49:57.387Z,5.60
2019-03-26T21:55:01.649Z,5.93
2019-03-26T22:00:07.652Z,6.30
2019-03-26T22:05:12.254Z,5.73
2019-03-26T22:10:16.757Z,5.50
2019-03-26T22:15:21.074Z,5.20
2019-03-26T22:20:25.574Z,5.97
2019-03-26T22:25:29.805Z,5.50
2019-03-26T22:30:34.029Z,5.83
2019-03-26T22:35:38.496Z,6.20
2019-03-26T22:40:42.857Z,6.00
2019-03-26T22:45:47.063Z,6.67
2019-03-26T22:50:51.309Z,6.20
2019-03-26T22:55:55.568Z,6.00
2019-03-26T23:01:00.067Z,5.67
2019-03-26T23:06:04.322Z,5.80
2019-03-26T23:11:08.623Z,6.03
2019-03-26T23:16:12.947Z,5.53
2019-03-26T23:21:19.726Z,5.60
2019-03-26T23:26:23.514Z,6.67
2019-03-26T23:31:27.749Z,5.27
2019-03-26T23:36:31.980Z,5.60
2019-03-26T23:41:39.529Z,4.43
2019-03-26T23:46:42.793Z,3.90
2019-03-26T23:51:47.337Z,3.83
2019-03-26T23:56:51.555Z,3.20
